createdAt,value
2019-04-22T00:01:17.106Z,5.67
2019-04-22T00:03:50.665Z,5.97
2019-04-22T00:06:42.710Z,5.60
2019-04-22T00:09:11.474Z,6.07
2019-04-22T00:11:46.679Z,5.47
2019-04-22T00:14:05.620Z,5.20
2019-04-22T00:16:58.630Z,5.27
2019-04-22T00:21:46.590Z,5.27
2019-04-22T00:24:20.477Z,5.40
2019-04-22T00:26:49.994Z,5.40
2019-04-22T00:29:39.247Z,5.77
2019-04-22T00:32:05.619Z,5.40
2019-04-22T00:34:34.145Z,5.23
2019-04-22T00:37:07.932Z,5.57
2019-04-22T00:42:16.413Z,4.97
2019-04-22T00:44:45.149Z,4.93
2019-04-22T00:47:23.287Z,4.80
2019-04-22T00:50:14.570Z,5.10
2019-04-22T00:52:16.641Z,4.83
2019-04-22T00:54:56.795Z,4.90
2019-04-22T00:57:21.725Z,5.37
2019-04-22T00:59:55.385Z,5.30
2019-04-22T01:04:55.986Z,4.77
2019-04-22T01:07:25.372Z,4.80
2019-04-22T01:09:58.634Z,4.73
2019-04-22T01:12:26.333Z,5.03
2019-04-22T01:14:55.312Z,4.90
2019-04-22T01:17:27.666Z,4.60
2019-04-22T01:20:05.035Z,5.00
2019-04-22T01:22:28.308Z,5.10
2019-04-22T01:24:56.438Z,4.77
2019-04-22T01:27:20.509Z,5.10
2019-04-22T01:29:48.895Z,4.60
2019-04-22T01:32:15.460Z,4.93
2019-04-22T01:35:00.968Z,5.00
2019-04-22T01:37:28.851Z,4.67
2019-04-22T01:40:14.706Z,4.50
2019-04-22T01:42:44.370Z,5.20
2019-04-22T01:45:14.293Z,5.33
2019-04-22T01:47:47.081Z,4.40
2019-04-22T01:50:12.318Z,4.93
2019-04-22T01:52:47.332Z,4.40
2019-04-22T01:55:22.922Z,4.90
2019-04-22T01:57:45.629Z,5.23
2019-04-22T02:00:09.440Z,4.83
2019-04-22T02:02:48.968Z,4.57
2019-04-22T02:05:19.200Z,4.77
2019-04-22T02:07:51.544Z,4.90
2019-04-22T02:10:20.148Z,4.33
2019-04-22T02:12:53.228Z,4.67
2019-04-22T02:15:23.978Z,4.97
2019-04-22T02:17:56.145Z,4.77
2019-04-22T02:20:25.360Z,4.27
2019-04-22T02:23:39.899Z,5.17
2019-04-22T02:25:58.844Z,3.87
2019-04-22T02:28:34.231Z,4.30
2019-04-22T02:31:15.986Z,4.70
2019-04-22T02:34:01.709Z,4.60
2019-04-22T02:36:19.257Z,4.63
2019-04-22T02:41:16.017Z,4.80
2019-04-22T02:43:46.646Z,4.20
2019-04-22T02:48:53.419Z,4.03
2019-04-22T02:51:12.010Z,4.60
2019-04-22T03:01:16.273Z,4.77
2019-04-22T03:03:59.174Z,4.43
2019-04-22T03:19:02.945Z,5.03
2019-04-22T03:23:56.391Z,4.80
2019-04-22T03:32:24.652Z,4.23
2019-04-22T03:37:09.465Z,4.50
2019-04-22T03:42:05.577Z,5.30
2019-04-22T03:44:35.480Z,4.80
2019-04-22T03:47:07.393Z,4.80
2019-04-22T03:52:05.653Z,4.53
2019-04-22T03:54:45.745Z,4.83
2019-04-22T03:59:35.351Z,5.37
2019-04-22T04:02:01.862Z,4.77
2019-04-22T04:07:11.062Z,4.90
2019-04-22T04:09:33.883Z,5.40
2019-04-22T04:12:23.749Z,5.33
2019-04-22T04:14:37.380Z,4.70
2019-04-22T04:17:08.913Z,5.40
2019-04-22T04:22:09.764Z,5.30
2019-04-22T04:27:27.179Z,5.03
2019-04-22T04:29:54.726Z,5.17
2019-04-22T04:32:26.899Z,5.50
2019-04-22T04:35:24.010Z,4.67
2019-04-22T04:37:38.758Z,5.30
2019-04-22T04:42:26.033Z,5.60
2019-04-22T04:47:29.523Z,5.10
2019-04-22T04:52:27.669Z,4.93
2019-04-22T04:57:23.971Z,5.90
2019-04-22T05:00:32.879Z,4.80
2019-04-22T05:05:04.238Z,4.90
2019-04-22T05:07:30.866Z,4.80
2019-04-22T05:09:51.585Z,4.40
2019-04-22T05:12:34.371Z,4.33
2019-04-22T05:14:55.060Z,4.47
2019-04-22T05:17:25.553Z,4.23
2019-04-22T05:19:57.130Z,4.63
2019-04-22T05:22:28.276Z,4.80
2019-04-22T05:24:58.322Z,4.40
2019-04-22T05:27:28.079Z,4.17
2019-04-22T05:30:10.075Z,4.07
2019-04-22T05:32:24.734Z,3.93
2019-04-22T05:34:57.588Z,4.03
2019-04-22T05:37:27.682Z,3.70
2019-04-22T05:39:56.365Z,4.17
2019-04-22T05:42:26.369Z,3.67
2019-04-22T05:45:04.580Z,4.33
2019-04-22T05:50:06.054Z,3.97
2019-04-22T05:52:41.407Z,4.17
2019-04-22T05:55:06.337Z,3.33
2019-04-22T05:57:34.405Z,3.20
2019-04-22T06:00:08.100Z,3.20
2019-04-22T06:02:48.279Z,3.23
2019-04-22T06:05:11.720Z,3.10
2019-04-22T06:07:32.537Z,3.20
2019-04-22T06:10:11.709Z,2.87
2019-04-22T06:12:35.350Z,3.20
2019-04-22T06:15:12.080Z,2.83
2019-04-22T06:17:47.303Z,3.00
2019-04-22T06:20:20.214Z,3.20
2019-04-22T06:22:50.383Z,2.73
2019-04-22T06:27:52.425Z,2.73
2019-04-22T06:30:20.606Z,2.80
2019-04-22T06:32:51.774Z,2.60
2019-04-22T06:35:34.486Z,2.30
2019-04-22T06:38:09.982Z,2.93
2019-04-22T06:40:28.946Z,2.73
2019-04-22T06:42:58.587Z,2.57
2019-04-22T06:45:24.945Z,2.47
2019-04-22T06:48:13.153Z,2.47
2019-04-22T06:50:32.812Z,2.60
2019-04-22T06:52:57.197Z,2.60
2019-04-22T06:55:40.194Z,2.47
2019-04-22T06:58:00.163Z,2.57
2019-04-22T07:00:32.326Z,2.13
2019-04-22T07:05:37.734Z,2.60
2019-04-22T07:08:18.277Z,2.27
2019-04-22T07:13:07.111Z,2.70
2019-04-22T07:15:46.702Z,2.60
2019-04-22T07:18:11.945Z,2.30
2019-04-22T07:20:42.218Z,2.97
2019-04-22T07:23:19.163Z,2.60
2019-04-22T07:25:41.378Z,2.33
2019-04-22T07:28:11.286Z,2.30
2019-04-22T07:30:41.123Z,2.43
2019-04-22T07:38:20.572Z,2.40
2019-04-22T07:43:19.912Z,2.80
2019-04-22T07:45:51.856Z,2.50
2019-04-22T07:48:26.513Z,2.67
2019-04-22T07:50:55.819Z,3.07
2019-04-22T07:53:15.709Z,2.43
2019-04-22T07:55:54.450Z,2.73
2019-04-22T07:58:26.033Z,3.10
2019-04-22T08:00:57.761Z,2.63
2019-04-22T08:03:29.316Z,2.60
2019-04-22T08:06:08.660Z,2.77
2019-04-22T08:08:29.274Z,2.70
2019-04-22T08:11:21.555Z,2.57
2019-04-22T08:13:30.857Z,2.70
2019-04-22T08:15:58.866Z,2.97
2019-04-22T08:23:37.433Z,2.90
2019-04-22T08:26:00.859Z,2.53
2019-04-22T08:28:37.901Z,2.93
2019-04-22T08:31:10.839Z,3.20
2019-04-22T08:33:33.342Z,3.00
2019-04-22T08:38:42.035Z,3.33
2019-04-22T08:41:28.437Z,3.03
2019-04-22T08:43:57.792Z,2.67
2019-04-22T08:46:27.340Z,3.30
2019-04-22T08:48:57.305Z,3.13
2019-04-22T08:51:28.227Z,3.03
2019-04-22T08:54:00.143Z,3.03
2019-04-22T08:56:33.784Z,3.30
2019-04-22T08:59:04.746Z,2.97
2019-04-22T09:01:27.071Z,2.80
2019-04-22T09:04:02.389Z,2.83
2019-04-22T09:06:47.856Z,2.90
2019-04-22T09:11:41.434Z,3.00
2019-04-22T09:14:06.528Z,2.90
2019-04-22T09:16:39.649Z,2.90
2019-04-22T09:19:05.918Z,3.43
2019-04-22T09:21:43.428Z,3.33
2019-04-22T09:24:13.106Z,3.10
2019-04-22T09:26:42.058Z,3.30
2019-04-22T09:29:14.567Z,3.00
2019-04-22T09:32:00.321Z,3.60
2019-04-22T09:34:10.069Z,3.47
2019-04-22T09:36:40.720Z,3.23
2019-04-22T09:39:19.643Z,3.97
2019-04-22T09:41:48.366Z,3.77
2019-04-22T09:44:09.318Z,3.83
2019-04-22T09:46:47.327Z,4.67
2019-04-22T09:49:19.609Z,4.60
2019-04-22T09:51:44.868Z,4.30
2019-04-22T09:54:22.018Z,3.80
2019-04-22T09:56:51.771Z,4.30
2019-04-22T09:59:21.117Z,3.97
2019-04-22T10:01:59.716Z,3.80
2019-04-22T10:04:20.152Z,3.67
2019-04-22T10:06:54.430Z,3.50
2019-04-22T10:09:52.824Z,3.50
2019-04-22T10:11:50.879Z,4.30
2019-04-22T10:14:28.500Z,3.40
2019-04-22T10:16:54.038Z,3.40
2019-04-22T10:19:23.495Z,3.73
2019-04-22T10:24:30.115Z,3.70
2019-04-22T10:27:00.313Z,3.57
2019-04-22T10:29:38.602Z,3.30
2019-04-22T10:32:02.134Z,3.63
2019-04-22T10:34:19.160Z,3.20
2019-04-22T10:36:37.947Z,3.93
2019-04-22T10:39:08.663Z,4.53
2019-04-22T10:41:38.915Z,3.77
2019-04-22T10:44:08.789Z,3.00
2019-04-22T10:46:38.231Z,3.40
2019-04-22T10:49:08.362Z,3.40
2019-04-22T10:51:37.743Z,3.00
2019-04-22T10:54:07.418Z,3.07
2019-04-22T10:56:37.007Z,2.53
2019-04-22T10:59:06.834Z,2.80
2019-04-22T11:01:38.522Z,2.70
2019-04-22T11:04:07.064Z,2.30
2019-04-22T11:06:41.003Z,2.80
2019-04-22T11:09:08.690Z,3.07
2019-04-22T11:11:48.836Z,2.90
2019-04-22T11:14:10.696Z,2.60
2019-04-22T11:16:41.396Z,2.67
2019-04-22T11:19:11.854Z,2.90
2019-04-22T11:21:41.419Z,3.27
2019-04-22T11:24:10.725Z,2.80
2019-04-22T11:26:41.037Z,3.03
2019-04-22T11:29:11.973Z,3.00
2019-04-22T11:31:42.317Z,2.53
2019-04-22T11:34:12.929Z,2.50
2019-04-22T11:36:43.019Z,3.00
2019-04-22T11:39:13.679Z,2.47
2019-04-22T11:41:44.306Z,2.63
2019-04-22T11:44:15.071Z,2.83
2019-04-22T11:46:45.264Z,3.03
2019-04-22T11:49:16.098Z,2.90
2019-04-22T11:51:45.758Z,2.97
2019-04-22T11:54:15.055Z,2.63
2019-04-22T11:56:45.216Z,3.27
2019-04-22T11:59:15.178Z,3.27
2019-04-22T12:01:44.675Z,3.07
2019-04-22T12:04:13.920Z,2.70
2019-04-22T12:06:44.145Z,3.30
2019-04-22T12:09:15.457Z,3.03
2019-04-22T12:11:44.643Z,3.17
2019-04-22T12:14:13.981Z,3.10
2019-04-22T12:16:43.630Z,2.93
2019-04-22T12:19:13.321Z,2.83
2019-04-22T12:21:42.647Z,3.10
2019-04-22T12:24:13.073Z,2.80
2019-04-22T12:26:42.499Z,2.70
2019-04-22T12:29:13.074Z,2.70
2019-04-22T12:31:42.482Z,2.60
2019-04-22T12:34:11.651Z,2.60
2019-04-22T12:36:42.386Z,2.63
2019-04-22T12:39:11.876Z,2.77
2019-04-22T12:41:42.369Z,2.55
2019-04-22T12:44:11.774Z,3.20
2019-04-22T12:46:42.037Z,2.92
2019-04-22T12:49:12.139Z,2.65
2019-04-22T12:51:42.865Z,2.62
2019-04-22T12:54:13.153Z,2.45
2019-04-22T12:56:43.869Z,2.33
2019-04-22T12:59:13.940Z,2.45
2019-04-22T13:01:44.662Z,2.55
2019-04-22T13:04:17.253Z,2.52
2019-04-22T13:06:46.073Z,2.80
2019-04-22T13:09:17.600Z,2.58
2019-04-22T13:11:46.267Z,2.20
2019-04-22T13:14:16.721Z,2.80
2019-04-22T13:16:47.281Z,2.80
2019-04-22T13:19:18.895Z,2.60
2019-04-22T13:21:48.875Z,3.00
2019-04-22T13:24:19.866Z,2.50
2019-04-22T13:26:48.993Z,3.25
2019-04-22T13:29:19.249Z,2.37
2019-04-22T13:31:50.913Z,2.33
2019-04-22T13:34:29.504Z,3.02
2019-04-22T13:36:51.334Z,2.50
2019-04-22T13:39:22.834Z,2.70
2019-04-22T13:41:56.556Z,2.27
2019-04-22T13:44:23.129Z,2.35
2019-04-22T13:47:11.623Z,2.40
2019-04-22T13:50:01.119Z,1.77
2019-04-22T13:52:35.674Z,2.17
2019-04-22T13:54:58.689Z,2.20
2019-04-22T13:57:15.761Z,2.77
2019-04-22T13:59:33.459Z,2.08
2019-04-22T14:02:35.144Z,2.00
2019-04-22T14:05:06.401Z,2.10
2019-04-22T14:07:37.010Z,2.13
2019-04-22T14:10:08.707Z,2.73
2019-04-22T14:12:39.115Z,2.00
2019-04-22T14:15:09.946Z,2.00
2019-04-22T14:17:39.220Z,2.17
2019-04-22T14:20:09.023Z,1.90
2019-04-22T14:22:38.870Z,2.37
2019-04-22T14:25:08.311Z,2.43
2019-04-22T14:27:47.877Z,2.00
2019-04-22T14:30:08.779Z,1.82
2019-04-22T14:32:39.583Z,1.77
2019-04-22T14:35:11.232Z,2.20
2019-04-22T14:37:40.551Z,1.87
2019-04-22T14:40:12.329Z,1.97
2019-04-22T14:43:03.700Z,2.20
2019-04-22T14:45:41.848Z,1.83
2019-04-22T14:48:07.242Z,2.07
2019-04-22T14:50:35.494Z,1.87
2019-04-22T14:53:05.399Z,1.50
2019-04-22T14:55:23.134Z,2.07
2019-04-22T14:57:49.024Z,1.90
2019-04-22T15:00:19.812Z,2.10
2019-04-22T15:02:49.894Z,1.83
2019-04-22T15:05:19.483Z,1.80
2019-04-22T15:07:49.893Z,1.90
2019-04-22T15:10:20.195Z,2.00
2019-04-22T15:12:52.690Z,2.00
2019-04-22T15:15:31.919Z,1.70
2019-04-22T15:18:07.992Z,2.00
2019-04-22T15:20:47.495Z,1.90
2019-04-22T15:23:16.763Z,1.90
2019-04-22T15:25:46.472Z,2.37
2019-04-22T15:28:15.755Z,1.85
2019-04-22T15:30:45.697Z,2.23
2019-04-22T15:33:15.297Z,2.30
2019-04-22T15:35:45.201Z,1.90
2019-04-22T15:38:15.564Z,2.00
2019-04-22T15:40:45.123Z,2.10
2019-04-22T15:43:14.979Z,1.80
2019-04-22T15:45:44.252Z,2.37
2019-04-22T15:48:14.682Z,2.13
2019-04-22T15:50:44.709Z,1.80
2019-04-22T15:53:14.021Z,2.10
2019-04-22T15:55:43.230Z,1.83
2019-04-22T15:58:12.418Z,2.20
2019-04-22T16:00:54.006Z,1.80
2019-04-22T16:03:12.606Z,1.83
2019-04-22T16:05:41.971Z,2.30
2019-04-22T16:08:11.163Z,1.80
2019-04-22T16:10:41.922Z,1.70
2019-04-22T16:13:19.173Z,1.67
2019-04-22T16:15:42.736Z,1.53
2019-04-22T16:18:14.623Z,1.70
2019-04-22T16:20:43.910Z,1.30
2019-04-22T16:23:42.360Z,1.70
2019-04-22T16:26:20.306Z,1.63
2019-04-22T16:28:52.359Z,1.60
2019-04-22T16:31:21.796Z,1.43
2019-04-22T16:33:52.475Z,1.43
2019-04-22T16:36:22.758Z,1.50
2019-04-22T16:38:53.261Z,1.50
2019-04-22T16:41:22.483Z,1.40
2019-04-22T16:43:51.755Z,1.50
2019-04-22T16:46:21.399Z,1.50
2019-04-22T16:48:51.780Z,1.20
2019-04-22T16:51:22.258Z,1.40
2019-04-22T16:53:51.551Z,1.33
2019-04-22T16:56:20.787Z,1.57
2019-04-22T16:58:50.695Z,1.40
2019-04-22T17:01:50.401Z,1.40
2019-04-22T17:04:51.368Z,1.33
2019-04-22T17:07:22.359Z,1.33
2019-04-22T17:09:52.170Z,1.37
2019-04-22T17:12:21.760Z,1.40
2019-04-22T17:14:58.023Z,1.57
2019-04-22T17:17:22.650Z,1.50
2019-04-22T17:19:53.189Z,1.57
2019-04-22T17:22:23.753Z,1.50
2019-04-22T17:24:54.047Z,1.40
2019-04-22T17:27:24.385Z,1.53
2019-04-22T17:29:54.637Z,1.50
2019-04-22T17:32:26.570Z,1.70
2019-04-22T17:34:54.755Z,2.43
2019-04-22T17:37:28.057Z,1.80
2019-04-22T17:40:13.221Z,1.70
2019-04-22T17:42:46.414Z,1.47
2019-04-22T17:45:46.370Z,1.60
2019-04-22T17:48:35.776Z,1.40
2019-04-22T17:51:10.629Z,1.70
2019-04-22T17:53:40.197Z,1.60
2019-04-22T17:56:10.626Z,2.00
2019-04-22T17:58:45.134Z,1.87
2019-04-22T18:01:09.279Z,2.00
2019-04-22T18:03:29.017Z,1.87
2019-04-22T18:05:58.208Z,1.97
2019-04-22T18:08:40.781Z,1.67
2019-04-22T18:11:14.630Z,2.00
2019-04-22T18:13:44.655Z,2.10
2019-04-22T18:16:19.546Z,1.90
2019-04-22T18:18:47.599Z,1.80
2019-04-22T18:21:13.079Z,2.23
2019-04-22T18:23:36.025Z,1.67
2019-04-22T18:26:18.791Z,1.73
2019-04-22T18:28:49.313Z,1.90
2019-04-22T18:31:16.168Z,2.07
2019-04-22T18:33:49.004Z,1.97
2019-04-22T18:36:19.295Z,1.90
2019-04-22T18:38:58.435Z,2.00
2019-04-22T18:41:19.650Z,2.13
2019-04-22T18:43:58.888Z,2.10
2019-04-22T18:46:26.358Z,1.87
2019-04-22T18:48:55.708Z,1.93
2019-04-22T18:51:39.716Z,1.90
2019-04-22T18:54:14.740Z,2.43
2019-04-22T18:56:46.583Z,2.37
2019-04-22T18:59:08.250Z,2.27
2019-04-22T19:01:28.313Z,2.00
2019-04-22T19:04:08.494Z,2.20
2019-04-22T19:06:55.117Z,2.20
2019-04-22T19:09:21.064Z,1.90
2019-04-22T19:12:03.148Z,2.60
2019-04-22T19:14:24.226Z,2.60
2019-04-22T19:16:55.859Z,2.03
2019-04-22T19:19:38.033Z,2.13
2019-04-22T19:21:56.102Z,2.20
2019-04-22T19:24:22.923Z,2.27
2019-04-22T19:26:58.848Z,2.10
2019-04-22T19:29:33.683Z,2.00
2019-04-22T19:31:56.927Z,2.40
2019-04-22T19:34:30.861Z,2.20
2019-04-22T19:37:02.070Z,2.50
2019-04-22T19:39:28.784Z,2.23
2019-04-22T19:42:12.463Z,2.60
2019-04-22T19:44:36.659Z,2.37
2019-04-22T19:47:21.080Z,2.60
2019-04-22T19:49:39.497Z,2.33
2019-04-22T19:52:15.685Z,2.20
2019-04-22T19:54:38.908Z,2.30
2019-04-22T19:57:03.697Z,2.33
2019-04-22T19:59:42.550Z,2.20
2019-04-22T20:02:44.766Z,2.00
2019-04-22T20:05:47.903Z,2.20
2019-04-22T20:08:21.338Z,2.60
2019-04-22T20:10:48.885Z,2.23
2019-04-22T20:13:28.867Z,2.10
2019-04-22T20:15:43.399Z,2.40
2019-04-22T20:20:59.203Z,2.37
2019-04-22T20:23:21.051Z,2.27
2019-04-22T20:25:49.287Z,2.43
2019-04-22T20:28:24.237Z,2.30
2019-04-22T20:30:56.011Z,2.60
2019-04-22T20:33:29.215Z,2.40
2019-04-22T20:35:58.278Z,2.50
2019-04-22T20:38:25.862Z,2.50
2019-04-22T20:40:55.029Z,2.47
2019-04-22T20:43:35.662Z,2.47
2019-04-22T20:46:05.907Z,2.63
2019-04-22T20:48:37.959Z,2.80
2019-04-22T20:51:04.090Z,2.00
2019-04-22T20:53:36.495Z,2.70
2019-04-22T20:56:08.399Z,2.53
2019-04-22T20:58:42.183Z,2.63
2019-04-22T21:00:59.850Z,2.50
2019-04-22T21:03:27.427Z,2.40
2019-04-22T21:06:00.743Z,2.50
2019-04-22T21:08:45.093Z,2.80
2019-04-22T21:11:04.230Z,3.07
2019-04-22T21:13:34.931Z,2.83
2019-04-22T21:16:20.426Z,2.90
2019-04-22T21:18:36.368Z,2.80
2019-04-22T21:21:13.449Z,3.03
2019-04-22T21:23:39.425Z,2.90
2019-04-22T21:26:13.799Z,3.10
2019-04-22T21:28:47.753Z,3.00
2019-04-22T21:31:19.214Z,3.00
2019-04-22T21:33:48.970Z,3.13
2019-04-22T21:36:25.428Z,3.17
2019-04-22T21:38:51.934Z,3.33
2019-04-22T21:41:20.502Z,3.70
2019-04-22T21:43:52.696Z,3.47
2019-04-22T21:46:27.012Z,3.00
2019-04-22T21:48:52.808Z,3.47
2019-04-22T21:51:25.697Z,3.07
2019-04-22T21:56:41.045Z,3.50
2019-04-22T21:59:01.845Z,3.80
2019-04-22T22:01:49.480Z,3.83
2019-04-22T22:04:12.799Z,3.60
2019-04-22T22:06:37.347Z,3.63
2019-04-22T22:09:15.213Z,3.50
2019-04-22T22:11:38.653Z,3.37
2019-04-22T22:14:14.919Z,3.40
2019-04-22T22:16:40.414Z,4.33
2019-04-22T22:19:15.065Z,4.30
2019-04-22T22:21:51.124Z,3.87
2019-04-22T22:24:23.147Z,4.13
2019-04-22T22:26:50.174Z,4.10
2019-04-22T22:29:31.417Z,3.97
2019-04-22T22:31:56.107Z,4.10
2019-04-22T22:34:24.825Z,3.90
2019-04-22T22:36:47.582Z,4.43
2019-04-22T22:39:17.412Z,3.70
2019-04-22T22:41:34.134Z,4.40
2019-04-22T22:44:14.078Z,4.13
2019-04-22T22:46:51.615Z,4.10
2019-04-22T22:49:29.881Z,3.57
2019-04-22T22:52:13.203Z,4.03
2019-04-22T22:54:33.095Z,3.87
2019-04-22T22:57:00.453Z,4.10
2019-04-22T22:59:37.240Z,3.70
2019-04-22T23:01:55.675Z,4.33
2019-04-22T23:04:37.642Z,3.50
2019-04-22T23:07:03.288Z,3.70
2019-04-22T23:09:30.756Z,3.93
2019-04-22T23:12:17.347Z,3.87
2019-04-22T23:14:32.690Z,3.67
2019-04-22T23:16:52.484Z,4.53
2019-04-22T23:19:15.729Z,3.90
2019-04-22T23:21:49.614Z,3.90
2019-04-22T23:24:48.238Z,4.03
2019-04-22T23:27:26.251Z,4.90
2019-04-22T23:30:23.911Z,3.97
2019-04-22T23:33:07.805Z,4.13
2019-04-22T23:35:53.128Z,4.20
2019-04-22T23:38:35.778Z,4.40
2019-04-22T23:41:01.657Z,4.23
2019-04-22T23:43:34.173Z,4.63
2019-04-22T23:46:02.375Z,4.43
2019-04-22T23:48:29.527Z,4.80
2019-04-22T23:51:12.089Z,4.17
2019-04-22T23:53:57.260Z,3.77
2019-04-22T23:56:11.076Z,3.90
